Windthorst, Texas
Current Conditions -  °F | °C
As of 1:52 PM on Monday 26 Jan 2015 (Local Time) from KSPS Reporting Station
Clear Clear  
Wind Chill: 69°   Ceiling: Unl
Heat Index: 69°   Visibility: 10mi
Dew Point: 39°   Wind: 13mph
Humidity: 33%   Direction: 250°WSW
Pressure: 30.1"   Gusts: NA
Location:  33.58°N, 98.44°W
Report Text: KSPS 261952Z 25011KT 10SM CLR 21/04 A3010 RMK AO2 SLP188 T02060039
Loading
Personal Weather Stations






























Interactive Weather Map New forecast layout! Learn more

10-Day Weather Forecast

Advertisements
Track Severe Weather on mobile